Time;durP1;ratioP1;P1;durP2;ratioP2;P2;SDS_P1;SDS_P2;PMS_P1;PMS_P2;Temp;Humidity;BMP_temperature;BMP_pressure;BME280_temperature;BME280_humidity;BME280_pressure;Samples;Min_cycle;Max_cycle;Signal;HPM_P1;HPM_P2
2021/12/20 00:01:10;;;;;;;2.70;1.80;;;;;;;15.36;62.97;102711.38;5028567;28;20461;-64
2021/12/20 00:03:36;;;;;;;4.00;1.87;;;;;;;15.35;62.69;102693.94;5019889;28;20033;-64
2021/12/20 00:06:01;;;;;;;3.58;2.00;;;;;;;15.33;62.75;102704.44;5022892;28;20476;-65
2021/12/20 00:08:28;;;;;;;5.17;2.03;;;;;;;15.26;62.79;102687.88;5026573;28;20049;-64
2021/12/20 00:10:54;;;;;;;3.85;2.00;;;;;;;15.31;63.60;102705.31;5018745;28;20024;-64
2021/12/20 00:13:20;;;;;;;5.43;2.10;;;;;;;15.32;63.76;102704.41;5021907;28;20026;-65
2021/12/20 00:15:45;;;;;;;4.23;2.00;;;;;;;15.32;63.82;102693.94;5025692;28;20289;-66
2021/12/20 00:18:10;;;;;;;3.13;1.70;;;;;;;15.22;63.43;102683.53;4993455;28;20029;-65
2021/12/20 00:20:36;;;;;;;4.03;1.90;;;;;;;15.34;63.79;102692.19;5005762;28;20076;-64
2021/12/20 00:23:01;;;;;;;2.83;1.60;;;;;;;15.24;63.85;102679.19;5022387;28;20026;-65
2021/12/20 00:25:27;;;;;;;3.23;1.90;;;;;;;15.34;63.80;102705.28;5023857;28;20056;-64
2021/12/20 00:27:53;;;;;;;3.87;1.80;;;;;;;15.31;63.85;102692.25;5022494;28;20050;-64
2021/12/20 00:30:19;;;;;;;1.92;1.58;;;;;;;15.35;63.84;102691.31;5021732;28;20515;-65
2021/12/20 00:32:44;;;;;;;2.55;1.88;;;;;;;15.35;63.83;102693.94;5017632;28;20399;-65
2021/12/20 00:35:12;;;;;;;4.67;2.00;;;;;;;15.34;63.76;102703.56;5013354;28;20029;-64
2021/12/20 00:40:22;;;;;;;2.88;1.88;;;;;;;15.34;63.74;102692.19;5020363;28;20133;-64
2021/12/20 00:43:07;;;;;;;3.20;1.93;;;;;;;15.37;63.56;102695.66;5022481;28;20124;-65
2021/12/20 00:45:37;;;;;;;4.30;1.80;;;;;;;15.34;63.75;102694.81;5022961;28;20061;-66
2021/12/20 00:48:04;;;;;;;3.03;1.90;;;;;;;15.33;63.70;102690.47;5018412;28;20038;-65
2021/12/20 00:50:30;;;;;;;3.33;2.00;;;;;;;15.34;63.76;102697.44;5022381;28;20535;-65
2021/12/20 00:52:56;;;;;;;3.05;1.83;;;;;;;15.26;63.75;102673.94;5022554;28;20357;-65
2021/12/20 00:55:23;;;;;;;3.30;1.80;;;;;;;15.33;63.70;102685.22;5026851;28;20044;-67
2021/12/20 00:57:51;;;;;;;2.17;1.63;;;;;;;15.33;63.92;102698.31;5003020;28;20124;-65
2021/12/20 01:00:22;;;;;;;3.08;1.60;;;;;;;15.31;63.65;102700.94;5021701;28;20025;-64
2021/12/20 01:02:48;;;;;;;2.58;1.80;;;;;;;15.23;63.83;102668.75;5026326;28;20065;-64
2021/12/20 01:05:14;;;;;;;3.25;2.00;;;;;;;15.29;63.85;102684.38;5022727;28;20041;-65
2021/12/20 01:07:39;;;;;;;2.22;1.80;;;;;;;15.27;63.63;102681.78;5017787;28;20026;-65
2021/12/20 01:10:08;;;;;;;3.03;1.70;;;;;;;15.31;63.55;102690.47;5015871;28;20041;-65
2021/12/20 01:12:47;;;;;;;3.85;1.80;;;;;;;15.27;63.71;102681.78;5016942;28;20041;-66
2021/12/20 01:15:19;;;;;;;3.30;1.80;;;;;;;15.25;63.58;102686.16;5017205;28;20044;-64
2021/12/20 01:17:44;;;;;;;2.22;1.73;;;;;;;15.27;63.65;102683.50;5026733;28;20043;-66
2021/12/20 01:20:11;;;;;;;4.77;1.80;;;;;;;15.29;63.73;102687.00;5020977;28;20037;-65
2021/12/20 01:22:36;;;;;;;3.95;1.90;;;;;;;15.27;63.64;102691.38;4991982;28;20030;-64
2021/12/20 01:25:02;;;;;;;3.83;1.73;;;;;;;15.29;63.64;102700.97;5002506;28;20037;-64
2021/12/20 01:27:28;;;;;;;2.50;1.70;;;;;;;15.26;63.59;102685.28;5022058;28;20057;-65
2021/12/20 01:29:53;;;;;;;1.83;1.50;;;;;;;15.29;63.64;102684.38;5021022;28;20026;-64
2021/12/20 01:32:18;;;;;;;3.20;1.60;;;;;;;15.20;63.50;102680.06;5021002;28;20117;-64
2021/12/20 01:34:44;;;;;;;3.10;1.60;;;;;;;15.28;63.61;102685.25;5023142;28;20072;-64
2021/12/20 01:37:09;;;;;;;2.83;1.70;;;;;;;15.23;63.61;102673.97;5021005;28;20093;-64
2021/12/20 01:39:34;;;;;;;1.93;1.60;;;;;;;15.27;63.83;102679.16;5037389;28;20436;-64
2021/12/20 01:42:03;;;;;;;4.50;1.60;;;;;;;15.22;63.54;102673.09;5023910;28;20026;-64
2021/12/20 01:44:30;;;;;;;4.75;1.85;;;;;;;15.21;63.72;102670.47;5031751;28;20029;-64
2021/12/20 01:46:56;;;;;;;3.28;1.85;;;;;;;15.25;63.74;102673.06;5026176;28;20029;-64
2021/12/20 01:49:21;;;;;;;4.60;1.90;;;;;;;15.24;63.71;102671.34;5011392;28;20026;-64
2021/12/20 01:52:10;;;;;;;2.17;1.60;;;;;;;15.26;63.86;102677.44;5031832;28;20034;-64
2021/12/20 01:54:36;;;;;;;2.20;1.60;;;;;;;15.26;63.68;102677.44;5034920;28;20040;-65
2021/12/20 01:57:01;;;;;;;2.40;1.60;;;;;;;15.24;63.78;102681.78;5023682;28;20022;-64
2021/12/20 01:59:28;;;;;;;2.87;1.70;;;;;;;15.21;63.70;102673.97;5026858;28;20465;-63
2021/12/20 02:01:53;;;;;;;1.63;1.50;;;;;;;15.20;63.48;102672.22;5028390;28;20029;-65
2021/12/20 02:04:20;;;;;;;4.60;1.73;;;;;;;15.21;63.65;102668.72;5026421;28;20390;-65
2021/12/20 02:06:48;;;;;;;3.30;1.70;;;;;;;15.26;63.69;102673.94;5021588;28;20033;-65
2021/12/20 02:09:19;;;;;;;3.45;1.50;;;;;;;15.25;63.52;102678.31;5025226;28;20030;-65
2021/12/20 02:11:48;;;;;;;3.20;1.90;;;;;;;15.23;63.64;102664.34;5021585;28;20113;-65
2021/12/20 02:14:14;;;;;;;2.80;1.40;;;;;;;15.24;63.69;102673.94;5025359;28;20104;-65
2021/12/20 02:16:41;;;;;;;3.17;1.60;;;;;;;15.22;63.35;102664.38;5014842;28;20173;-65
2021/12/20 02:19:09;;;;;;;2.95;1.58;;;;;;;15.24;63.60;102671.34;5015437;28;20026;-64
2021/12/20 02:21:35;;;;;;;2.30;1.73;;;;;;;15.24;63.59;102679.19;5015635;28;20088;-65
2021/12/20 02:24:00;;;;;;;3.80;1.70;;;;;;;15.21;63.44;102663.50;5014528;28;20433;-64
2021/12/20 02:26:26;;;;;;;2.87;1.60;;;;;;;15.24;63.45;102665.25;5015579;28;20026;-65
2021/12/20 02:28:55;;;;;;;4.43;1.67;;;;;;;15.24;63.45;102673.09;5015694;28;20117;-64
2021/12/20 02:37:03;;;;;;;2.88;1.40;;;;;;;15.20;63.62;102664.38;5015376;28;20550;-65
2021/12/20 02:39:29;;;;;;;4.00;1.45;;;;;;;15.20;63.64;102656.53;5014979;28;20036;-64
2021/12/20 02:41:54;;;;;;;2.55;1.58;;;;;;;15.22;63.62;102669.59;5013816;28;20045;-65
2021/12/20 02:44:22;;;;;;;3.20;2.00;;;;;;;15.22;63.55;102665.22;5015036;28;20030;-65
2021/12/20 02:49:24;;;;;;;3.45;1.50;;;;;;;15.17;63.76;102656.56;5015249;28;20045;-65
2021/12/20 02:51:52;;;;;;;4.15;1.67;;;;;;;15.18;63.61;102655.69;4997321;28;20030;-64
2021/12/20 02:54:20;;;;;;;2.88;1.60;;;;;;;15.19;63.64;102657.44;5014093;28;20071;-65
2021/12/20 02:56:47;;;;;;;5.15;1.80;;;;;;;15.19;63.64;102653.94;5013823;28;20038;-64
2021/12/20 02:59:13;;;;;;;3.40;1.40;;;;;;;15.20;63.65;102660.91;4997998;28;20034;-65
2021/12/20 03:01:41;;;;;;;4.70;1.73;;;;;;;15.17;63.52;102651.34;4997573;28;20040;-65
2021/12/20 03:04:07;;;;;;;2.78;1.60;;;;;;;15.20;63.67;102666.97;5013690;28;20022;-65
2021/12/20 03:06:38;;;;;;;4.53;1.63;;;;;;;15.19;63.41;102660.03;5013481;28;20038;-65
2021/12/20 03:09:05;;;;;;;4.05;1.85;;;;;;;15.18;63.76;102660.03;5014218;28;20065;-65
2021/12/20 03:11:31;;;;;;;3.08;1.70;;;;;;;15.19;63.45;102660.03;5014346;28;20080;-65
2021/12/20 03:14:08;;;;;;;3.37;1.80;;;;;;;15.15;63.43;102663.53;4980982;28;20033;-65
2021/12/20 03:16:34;;;;;;;3.65;1.60;;;;;;;15.17;63.70;102673.97;5013414;28;20033;-65
2021/12/20 03:19:01;;;;;;;4.78;1.75;;;;;;;15.17;63.68;102660.91;5014401;28;20444;-65
2021/12/20 03:21:26;;;;;;;;;;;;;;;15.26;63.24;102661.72;4997113;28;20053;-65
2021/12/20 03:23:52;;;;;;;2.93;1.50;;;;;;;15.19;63.59;102653.94;5013195;28;19921;-65
2021/12/20 03:26:17;;;;;;;2.97;1.63;;;;;;;15.16;63.40;102651.31;4996653;28;20030;-65
2021/12/20 03:28:42;;;;;;;4.90;1.60;;;;;;;15.16;63.59;102652.22;5012916;28;20431;-65
2021/12/20 03:31:08;;;;;;;3.40;1.57;;;;;;;15.16;63.38;102657.44;5013007;28;20026;-65
2021/12/20 03:33:33;;;;;;;3.73;1.60;;;;;;;15.18;63.53;102665.25;5012876;28;20510;-65
2021/12/20 03:35:58;;;;;;;2.70;1.70;;;;;;;15.17;63.58;102667.03;5012737;28;20041;-65
2021/12/20 03:38:24;;;;;;;1.60;1.50;;;;;;;15.17;63.52;102659.19;5012937;28;20033;-66
2021/12/20 03:40:50;;;;;;;5.17;1.73;;;;;;;15.14;63.70;102657.44;5014173;28;20087;-65
2021/12/20 03:43:17;;;;;;;4.97;1.60;;;;;;;15.14;63.54;102656.56;5014254;28;20491;-65
2021/12/20 03:45:44;;;;;;;3.85;1.60;;;;;;;15.14;63.70;102661.81;5014213;28;20396;-65
2021/12/20 03:48:10;;;;;;;5.65;1.80;;;;;;;15.13;63.35;102660.94;5014026;28;20103;-65
2021/12/20 03:50:36;;;;;;;4.50;1.60;;;;;;;15.11;63.61;102667.03;5013519;28;20030;-64
2021/12/20 03:53:02;;;;;;;5.93;1.75;;;;;;;15.12;63.63;102655.69;4996390;28;20128;-65
2021/12/20 03:55:27;;;;;;;3.90;1.80;;;;;;;15.09;63.65;102653.97;5014180;28;20105;-65
2021/12/20 03:57:52;;;;;;;2.90;1.57;;;;;;;15.12;63.60;102655.69;5012822;28;20120;-65
2021/12/20 04:00:18;;;;;;;2.83;1.53;;;;;;;15.13;63.61;102663.56;5012478;28;20030;-64
2021/12/20 04:02:45;;;;;;;5.33;1.70;;;;;;;15.08;63.47;102660.09;5012663;28;20038;-65
2021/12/20 04:05:11;;;;;;;;;;;;;;;15.21;63.28;102666.09;5013139;28;20037;-64
2021/12/20 04:07:36;;;;;;;4.03;1.60;;;;;;;15.12;63.58;102660.94;5011956;28;19917;-65
2021/12/20 04:10:04;;;;;;;4.10;1.47;;;;;;;15.11;63.63;102665.31;5013592;28;20030;-65
2021/12/20 04:12:29;;;;;;;3.17;1.70;;;;;;;15.12;63.64;102660.94;5013565;28;20061;-64
2021/12/20 04:14:54;;;;;;;3.83;1.70;;;;;;;15.11;63.61;102664.44;5013697;28;20113;-65
2021/12/20 04:17:20;;;;;;;4.83;1.77;;;;;;;15.06;63.36;102650.53;5012697;28;20068;-65
2021/12/20 04:19:46;;;;;;;3.33;1.73;;;;;;;15.11;63.50;102653.97;5013357;28;20096;-64
2021/12/20 04:22:11;;;;;;;5.30;1.73;;;;;;;15.08;63.66;102647.00;5012080;28;20040;-64
2021/12/20 04:24:36;;;;;;;2.53;1.53;;;;;;;15.08;63.60;102649.63;4995891;28;20040;-64
2021/12/20 04:27:02;;;;;;;5.33;1.97;;;;;;;15.10;63.33;102666.19;5013240;28;20085;-65
2021/12/20 04:29:29;;;;;;;5.00;1.80;;;;;;;15.06;63.62;102658.38;5013489;28;20092;-65
2021/12/20 04:31:54;;;;;;;;;;;;;;;15.18;63.23;102662.66;5012580;28;20038;-65
2021/12/20 04:34:20;;;;;;;4.30;1.60;;;;;;;15.12;63.21;102661.81;5013064;28;19909;-64
2021/12/20 04:36:45;;;;;;;5.80;1.70;;;;;;;15.08;63.56;102654.00;4995472;28;20189;-66
2021/12/20 04:39:15;;;;;;;5.30;1.63;;;;;;;15.12;63.49;102653.09;5013350;28;20045;-65
2021/12/20 04:41:40;;;;;;;4.80;1.40;;;;;;;15.10;63.51;102650.50;4980477;28;20066;-64
2021/12/20 04:44:06;;;;;;;4.23;1.73;;;;;;;15.08;63.64;102646.16;5012220;28;20060;-64
2021/12/20 04:46:31;;;;;;;5.83;1.80;;;;;;;15.10;63.18;102652.22;5012430;28;20034;-64
2021/12/20 04:48:57;;;;;;;3.20;1.50;;;;;;;15.07;63.57;102649.66;5013042;28;20034;-65
2021/12/20 04:51:22;;;;;;;3.73;1.63;;;;;;;15.08;63.75;102662.69;5013078;28;20079;-65
2021/12/20 04:53:48;;;;;;;4.43;1.60;;;;;;;15.05;63.36;102654.00;5013128;28;20472;-64
2021/12/20 04:56:13;;;;;;;3.47;1.43;;;;;;;15.07;63.15;102660.97;5011929;28;20034;-65
2021/12/20 04:58:39;;;;;;;3.77;1.40;;;;;;;15.07;63.54;102660.09;5013313;28;20038;-65
2021/12/20 05:01:04;;;;;;;4.63;1.70;;;;;;;15.07;63.68;102660.09;5013348;28;20030;-65
2021/12/20 05:03:30;;;;;;;2.73;1.50;;;;;;;15.04;63.27;102663.59;5013045;28;20380;-65
2021/12/20 05:05:55;;;;;;;6.37;1.73;;;;;;;15.02;63.57;102654.91;5011544;28;20037;-65
2021/12/20 05:08:21;;;;;;;3.70;1.70;;;;;;;15.05;63.64;102659.25;4979119;28;20033;-65
2021/12/20 05:10:46;;;;;;;5.00;1.83;;;;;;;15.03;63.68;102659.22;5011718;28;20470;-65
2021/12/20 05:13:13;;;;;;;3.20;1.50;;;;;;;15.04;63.73;102660.13;5011622;28;20030;-65
2021/12/20 05:15:39;;;;;;;3.33;1.45;;;;;;;15.03;63.46;102664.47;5011766;28;20025;-65
2021/12/20 05:18:06;;;;;;;4.32;1.90;;;;;;;15.04;63.42;102668.81;4998498;28;20049;-65
2021/12/20 05:20:33;;;;;;;5.05;1.70;;;;;;;15.02;63.47;102665.38;5016583;28;20042;-65
2021/12/20 05:22:59;;;;;;;3.35;1.67;;;;;;;15.04;63.52;102663.59;5016686;28;20113;-65
2021/12/20 05:25:26;;;;;;;3.55;1.83;;;;;;;15.03;63.43;102668.84;5016581;28;20485;-65
2021/12/20 05:27:52;;;;;;;3.63;1.70;;;;;;;15.01;63.39;102661.00;5015292;28;20144;-65
2021/12/20 05:30:18;;;;;;;3.55;1.55;;;;;;;15.04;63.23;102668.81;5015326;28;20029;-65
2021/12/20 05:32:44;;;;;;;4.10;1.70;;;;;;;15.00;63.39;102653.16;5016795;28;20037;-65
2021/12/20 05:35:11;;;;;;;3.35;1.38;;;;;;;15.01;63.31;102662.72;5016491;28;20062;-65
2021/12/20 05:37:38;;;;;;;6.03;1.70;;;;;;;15.04;63.65;102670.56;5015071;28;20049;-65
2021/12/20 05:40:05;;;;;;;2.55;1.45;;;;;;;15.03;63.49;102664.47;5015246;28;20034;-65
2021/12/20 05:42:31;;;;;;;3.15;1.58;;;;;;;15.01;63.45;102663.63;5016272;28;20551;-65
2021/12/20 05:44:56;;;;;;;2.70;1.33;;;;;;;15.02;63.79;102670.59;5016309;28;20121;-65
2021/12/20 05:47:22;;;;;;;4.23;1.50;;;;;;;14.97;63.50;102667.13;5033273;28;20064;-65
2021/12/20 05:49:49;;;;;;;6.03;1.90;;;;;;;15.01;63.62;102673.19;5016716;28;20464;-65
2021/12/20 05:52:14;;;;;;;4.15;1.70;;;;;;;15.02;63.28;102664.47;5015702;28;20034;-65
2021/12/20 05:54:40;;;;;;;3.87;1.70;;;;;;;14.97;63.49;102661.88;5014980;28;20030;-65
2021/12/20 05:57:05;;;;;;;5.27;1.80;;;;;;;15.03;63.21;102674.06;5015255;28;20048;-65
2021/12/20 05:59:31;;;;;;;3.37;1.70;;;;;;;15.01;63.75;102675.81;5016729;28;20108;-65
2021/12/20 06:01:56;;;;;;;5.07;1.67;;;;;;;14.98;63.45;102669.72;5016057;28;20030;-65
2021/12/20 06:04:21;;;;;;;5.27;1.70;;;;;;;15.03;63.36;102669.69;5020001;28;20029;-65
2021/12/20 06:06:47;;;;;;;4.77;1.93;;;;;;;15.02;63.28;102674.94;4987063;28;20072;-65
2021/12/20 06:09:13;;;;;;;4.23;1.70;;;;;;;15.02;63.02;102678.44;5015707;28;20040;-65
2021/12/20 06:11:38;;;;;;;5.60;2.00;;;;;;;15.01;63.26;102668.84;5023603;28;20037;-66
2021/12/20 06:14:03;;;;;;;9.13;1.60;;;;;;;15.01;63.15;102670.56;5023806;28;20041;-66
2021/12/20 06:16:29;;;;;;;8.30;2.00;;;;;;;15.01;63.40;102673.19;5030262;28;20044;-66
2021/12/20 06:18:54;;;;;;;6.33;1.80;;;;;;;15.00;63.25;102679.28;5032741;28;20052;-66
2021/12/20 06:21:20;;;;;;;10.03;2.03;;;;;;;14.98;62.99;102677.56;5025467;28;20033;-66
2021/12/20 06:23:45;;;;;;;4.90;1.67;;;;;;;15.00;62.98;102684.53;5014702;28;20120;-66
2021/12/20 06:26:11;;;;;;;9.10;2.20;;;;;;;14.97;62.77;102678.44;4981852;28;20599;-66
2021/12/20 06:28:37;;;;;;;8.00;1.50;;;;;;;14.98;62.55;102674.94;5019224;28;20058;-67
2021/12/20 06:31:02;;;;;;;9.50;2.40;;;;;;;14.97;62.44;102681.03;5022395;28;20057;-66
2021/12/20 06:33:28;;;;;;;8.17;2.10;;;;;;;14.95;62.33;102676.69;5024551;28;20443;-66
2021/12/20 06:35:54;;;;;;;9.83;2.20;;;;;;;14.97;62.40;102685.41;5041321;28;20029;-65
2021/12/20 06:38:21;;;;;;;11.52;2.45;;;;;;;14.94;62.06;102682.81;5033227;28;20064;-64
2021/12/20 06:40:51;;;;;;;9.73;2.50;;;;;;;14.89;62.40;102681.97;5025011;28;20041;-65
2021/12/20 06:43:17;;;;;;;8.63;2.40;;;;;;;14.91;62.41;102682.84;5015334;28;20030;-65
2021/12/20 06:45:42;;;;;;;8.52;2.20;;;;;;;14.91;62.16;102694.16;5031946;28;20124;-64
2021/12/20 06:48:08;;;;;;;9.00;2.50;;;;;;;14.93;62.24;102699.38;5034974;28;20444;-64
2021/12/20 06:50:33;;;;;;;10.23;2.47;;;;;;;14.93;62.29;102694.13;5031960;28;20041;-65
2021/12/20 06:52:59;;;;;;;11.90;2.30;;;;;;;14.86;62.46;102693.28;5033422;28;20103;-64
2021/12/20 06:55:25;;;;;;;12.57;2.70;;;;;;;14.91;62.03;102706.38;5033328;28;20029;-65
2021/12/20 06:57:51;;;;;;;7.00;2.20;;;;;;;14.91;62.38;102698.53;5032627;28;20033;-64
2021/12/20 07:00:17;;;;;;;10.65;2.45;;;;;;;14.90;62.09;102700.25;5015873;28;20124;-65
2021/12/20 07:02:42;;;;;;;11.47;2.77;;;;;;;14.87;62.02;102700.25;5033683;28;20109;-64
2021/12/20 07:05:08;;;;;;;14.60;2.90;;;;;;;14.90;61.79;102713.31;5015821;28;20033;-64
2021/12/20 07:07:34;;;;;;;11.95;2.80;;;;;;;14.89;61.74;102711.59;5016155;28;20120;-65
2021/12/20 07:10:00;;;;;;;13.43;2.53;;;;;;;14.84;61.55;102702.91;5033006;28;20038;-64
2021/12/20 07:12:28;;;;;;;9.98;2.40;;;;;;;14.82;61.62;102700.28;5034339;28;20061;-65
2021/12/20 07:14:53;;;;;;;8.75;2.33;;;;;;;14.80;61.68;102703.78;5033136;28;20041;-65
2021/12/20 07:17:20;;;;;;;12.33;2.60;;;;;;;14.87;61.31;102712.47;5034489;28;20388;-64
2021/12/20 07:19:45;;;;;;;12.32;2.85;;;;;;;14.87;61.54;102715.09;5034012;28;20034;-65
2021/12/20 07:22:10;;;;;;;12.47;2.70;;;;;;;14.85;61.43;102707.25;5016535;28;20128;-65
2021/12/20 07:24:36;;;;;;;12.47;2.80;;;;;;;14.85;61.36;102712.50;5033077;28;20041;-64
2021/12/20 07:27:01;;;;;;;8.37;2.63;;;;;;;14.85;61.23;102717.72;5000224;28;20053;-65
2021/12/20 07:29:27;;;;;;;10.40;2.73;;;;;;;14.81;61.14;102711.59;5033201;28;20052;-64
2021/12/20 07:31:52;;;;;;;7.97;2.77;;;;;;;14.75;61.39;102701.19;5034107;28;20040;-65
2021/12/20 07:34:18;;;;;;;13.10;2.77;;;;;;;14.81;61.07;102708.13;5033833;28;20491;-64
2021/12/20 07:36:43;;;;;;;10.43;2.60;;;;;;;14.82;60.98;102709.88;5033862;28;20118;-64
2021/12/20 07:39:09;;;;;;;9.80;2.58;;;;;;;14.83;61.03;102712.47;5032650;28;20114;-65
2021/12/20 07:41:34;;;;;;;8.03;2.33;;;;;;;14.84;60.99;102713.34;5032849;28;20029;-64
2021/12/20 07:43:59;;;;;;;9.63;2.50;;;;;;;14.80;60.96;102709.00;5034182;28;20052;-65
2021/12/20 07:46:25;;;;;;;13.70;2.90;;;;;;;14.80;60.92;102707.28;5034009;28;20057;-65
2021/12/20 07:48:51;;;;;;;11.83;2.73;;;;;;;14.81;60.74;102713.38;5016107;28;20380;-65
2021/12/20 07:51:17;;;;;;;14.15;3.00;;;;;;;14.76;58.32;102713.38;5032031;28;20029;-64
2021/12/20 07:53:43;;;;;;;15.35;3.10;;;;;;;14.77;57.85;102725.56;5033631;28;20357;-65
2021/12/20 07:56:08;;;;;;;14.00;3.17;;;;;;;14.72;58.46;102721.22;5032765;28;20083;-65
2021/12/20 07:58:34;;;;;;;15.17;3.30;;;;;;;14.67;59.34;102709.03;5033799;28;20091;-64
2021/12/20 08:01:01;;;;;;;10.47;2.60;;;;;;;14.74;59.72;102716.88;5033698;28;20454;-65
2021/12/20 08:03:27;;;;;;;13.60;2.95;;;;;;;14.76;58.95;102720.31;5033830;28;20033;-64
2021/12/20 08:05:53;;;;;;;14.68;3.10;;;;;;;14.73;56.67;102717.75;5032002;28;20361;-65
2021/12/20 08:08:18;;;;;;;8.97;2.80;;;;;;;14.73;57.67;102717.75;5015753;28;20036;-65
2021/12/20 08:10:44;;;;;;;11.87;3.00;;;;;;;14.74;58.24;102728.19;5033773;28;20095;-65
2021/12/20 08:13:10;;;;;;;13.33;2.93;;;;;;;14.75;58.50;102727.31;5033433;28;20022;-65
2021/12/20 08:15:35;;;;;;;14.00;2.80;;;;;;;14.72;58.63;102727.31;5032262;28;20124;-64
2021/12/20 08:18:01;;;;;;;12.27;3.07;;;;;;;14.73;58.93;102725.59;5032066;28;20140;-65
2021/12/20 08:20:26;;;;;;;12.53;2.80;;;;;;;14.67;58.94;102721.25;5033063;28;20034;-65
2021/12/20 08:22:52;;;;;;;13.97;2.97;;;;;;;14.65;57.69;102718.59;4998987;28;20060;-65
2021/12/20 08:25:19;;;;;;;13.70;3.30;;;;;;;14.70;56.65;102733.44;5032194;28;20037;-66
2021/12/20 08:27:44;;;;;;;;;;;;;;;14.79;58.11;102751.69;5033156;28;20141;-65
2021/12/20 08:30:10;;;;;;;15.25;3.28;;;;;;;14.64;55.03;102734.28;5031874;28;19921;-64
2021/12/20 08:32:36;;;;;;;15.77;3.83;;;;;;;14.54;55.02;102724.72;5012996;28;20030;-65
2021/12/20 08:35:03;;;;;;;17.40;3.50;;;;;;;14.55;54.36;102735.16;5013231;28;20034;-66
2021/12/20 08:37:28;;;;;;;13.30;3.63;;;;;;;14.52;54.34;102727.34;5014653;28;20454;-65
2021/12/20 08:39:54;;;;;;;15.47;3.80;;;;;;;14.45;53.93;102730.81;5022813;28;20045;-65
2021/12/20 08:42:20;;;;;;;18.73;3.87;;;;;;;14.47;53.96;102734.31;5022602;28;20376;-65
2021/12/20 08:44:45;;;;;;;17.67;3.95;;;;;;;14.43;53.61;102735.16;5022255;28;20029;-65
2021/12/20 08:47:11;;;;;;;15.20;3.77;;;;;;;14.38;53.44;102731.72;5023434;28;20029;-65
2021/12/20 08:49:36;;;;;;;18.73;3.60;;;;;;;14.33;53.06;102735.19;5022022;28;20188;-65
2021/12/20 08:52:04;;;;;;;18.40;3.73;;;;;;;14.36;53.47;102743.03;5021192;28;20029;-65
2021/12/20 08:54:30;;;;;;;18.30;3.70;;;;;;;14.36;53.18;102742.13;5022249;28;20026;-65
2021/12/20 08:56:56;;;;;;;15.33;3.90;;;;;;;14.34;53.30;102736.94;5027499;28;20022;-65
2021/12/20 08:59:23;;;;;;;18.13;3.75;;;;;;;14.30;52.84;102737.78;5021801;28;20040;-66
2021/12/20 09:01:48;;;;;;;14.93;3.83;;;;;;;14.26;52.91;102733.47;5011861;28;20034;-65
2021/12/20 09:04:15;;;;;;;16.23;3.40;;;;;;;14.24;53.21;102739.56;5018737;28;20053;-66
2021/12/20 09:06:42;;;;;;;14.32;3.08;;;;;;;14.29;53.39;102745.63;5013765;28;20460;-65
2021/12/20 09:09:09;;;;;;;16.50;3.20;;;;;;;14.29;53.52;102743.91;5020803;28;20061;-65
2021/12/20 09:11:34;;;;;;;19.08;3.67;;;;;;;14.28;53.47;102744.78;5018273;28;20037;-65
2021/12/20 09:14:00;;;;;;;14.63;3.00;;;;;;;14.27;53.38;102740.44;5028460;28;20040;-65
2021/12/20 09:16:25;;;;;;;16.43;3.03;;;;;;;14.28;53.34;102751.72;5015393;28;20060;-65
2021/12/20 09:18:51;;;;;;;15.63;3.30;;;;;;;14.27;53.29;102760.44;5012358;28;20098;-65
2021/12/20 09:21:17;;;;;;;15.93;3.30;;;;;;;14.24;53.55;102750.88;5018102;28;20034;-65
2021/12/20 09:23:43;;;;;;;17.80;3.40;;;;;;;14.23;53.11;102749.13;5027822;28;20033;-65
2021/12/20 09:26:09;;;;;;;15.25;3.35;;;;;;;14.26;53.10;102754.34;5022240;28;20418;-67
2021/12/20 09:28:35;;;;;;;14.35;3.08;;;;;;;14.23;52.97;102751.72;5017458;28;20132;-66
2021/12/20 09:31:02;;;;;;;14.87;3.30;;;;;;;14.24;53.05;102756.09;5012939;28;20116;-66
2021/12/20 09:33:28;;;;;;;15.98;3.38;;;;;;;14.27;53.20;102756.09;5010016;28;20034;-65
2021/12/20 09:35:54;;;;;;;18.03;3.80;;;;;;;14.27;53.02;102760.44;4992902;28;20056;-66
2021/12/20 09:38:20;;;;;;;14.03;3.00;;;;;;;14.25;52.69;102760.44;4977116;28;20040;-66
2021/12/20 09:41:59;;;;;;;15.35;3.50;;;;;;;14.21;52.79;102763.91;5009770;28;20026;-65
2021/12/20 09:43:40;;;;;;;14.40;3.17;;;;;;;14.20;52.72;102770.88;5007122;28;20392;-65
2021/12/20 09:46:07;;;;;;;14.52;3.20;;;;;;;14.19;52.71;102771.75;5011623;28;20042;-65
2021/12/20 09:48:35;;;;;;;17.10;3.35;;;;;;;14.15;52.69;102763.94;5011238;28;20061;-65
2021/12/20 09:51:02;;;;;;;14.02;2.90;;;;;;;14.20;52.94;102772.63;4994240;28;20026;-65
2021/12/20 09:53:27;;;;;;;16.20;3.45;;;;;;;14.17;52.70;102767.41;5012987;28;20054;-65
2021/12/20 09:55:54;;;;;;;16.50;3.33;;;;;;;14.19;52.72;102769.16;5012541;28;20077;-65
2021/12/20 09:58:21;;;;;;;16.92;3.03;;;;;;;14.18;52.64;102764.78;5011751;28;20026;-65
2021/12/20 10:00:48;;;;;;;15.80;3.72;;;;;;;14.18;52.84;102777.84;5011489;28;20025;-66
2021/12/20 10:03:14;;;;;;;14.30;3.30;;;;;;;14.19;52.69;102778.69;4995512;28;20026;-65
2021/12/20 10:05:40;;;;;;;15.95;3.78;;;;;;;14.20;52.27;102781.34;5016267;28;20088;-65
2021/12/20 10:08:14;;;;;;;15.95;3.38;;;;;;;14.21;52.59;102772.63;4998808;28;20103;-65
2021/12/20 10:10:43;;;;;;;13.98;3.20;;;;;;;14.16;52.59;102774.38;5015150;28;20061;-65
2021/12/20 10:13:29;;;;;;;16.45;3.60;;;;;;;14.21;53.14;102782.19;5014836;28;20052;-65
2021/12/20 10:15:56;;;;;;;13.40;3.13;;;;;;;14.19;52.88;102773.47;5015284;28;20053;-64
2021/12/20 10:18:22;;;;;;;17.60;3.38;;;;;;;14.16;52.67;102773.50;5016523;28;20038;-65
2021/12/20 10:20:51;;;;;;;14.70;3.47;;;;;;;14.11;52.81;102767.41;5016315;28;20435;-65
2021/12/20 10:23:22;;;;;;;16.42;3.38;;;;;;;14.13;52.61;102773.50;5014518;28;20030;-65
2021/12/20 10:25:52;;;;;;;17.38;3.40;;;;;;;14.16;52.33;102781.34;5014730;28;20026;-65
2021/12/20 10:28:23;;;;;;;12.63;2.92;;;;;;;14.16;52.68;102779.59;5014322;28;20054;-65
2021/12/20 10:31:14;;;;;;;15.10;3.25;;;;;;;14.20;53.12;102775.22;5013999;28;20041;-66
2021/12/20 10:33:49;;;;;;;17.48;3.50;;;;;;;14.07;52.21;102757.84;5014494;28;20558;-65
2021/12/20 10:36:15;;;;;;;14.35;3.13;;;;;;;14.16;52.34;102771.75;5014844;28;20038;-66
2021/12/20 10:38:43;;;;;;;17.10;3.20;;;;;;;14.12;52.13;102758.69;4981874;28;20041;-65
2021/12/20 10:41:12;;;;;;;12.50;2.90;;;;;;;14.14;52.37;102770.88;5014406;28;20022;-65
2021/12/20 10:43:54;;;;;;;10.90;2.70;;;;;;;14.15;52.55;102779.59;5014451;28;20080;-65
2021/12/20 10:46:25;;;;;;;14.00;2.92;;;;;;;14.13;52.41;102776.97;5015587;28;20380;-65
2021/12/20 10:48:58;;;;;;;15.30;3.30;;;;;;;14.15;52.42;102779.59;5015345;28;20120;-66
2021/12/20 10:51:27;;;;;;;16.60;3.35;;;;;;;14.13;52.05;102781.31;5014280;28;20116;-65
2021/12/20 10:54:01;;;;;;;16.13;3.45;;;;;;;14.13;52.08;102776.97;5015560;28;20357;-65
2021/12/20 10:56:33;;;;;;;16.15;3.35;;;;;;;14.12;51.92;102769.13;5015501;28;20456;-65
2021/12/20 10:59:04;;;;;;;17.30;3.15;;;;;;;14.11;52.13;102768.28;5014290;28;20045;-65
2021/12/20 11:04:15;;;;;;;15.25;3.40;;;;;;;14.13;52.38;102776.09;5015347;28;20041;-65
2021/12/20 11:09:33;;;;;;;13.98;3.20;;;;;;;14.12;52.08;102759.59;5022403;28;20033;-64
2021/12/20 11:12:02;;;;;;;13.27;3.40;;;;;;;14.12;52.40;102766.53;5024538;28;20088;-64
2021/12/20 11:14:36;;;;;;;16.42;3.45;;;;;;;14.09;51.91;102763.91;5018475;28;20033;-64
2021/12/20 11:17:05;;;;;;;12.23;2.97;;;;;;;14.12;52.19;102759.59;5015474;28;20021;-65
2021/12/20 11:19:33;;;;;;;14.52;3.20;;;;;;;14.12;52.15;102764.81;5013817;28;20060;-65
2021/12/20 11:21:58;;;;;;;13.68;2.90;;;;;;;14.14;51.97;102768.25;5013764;28;20092;-65
2021/12/20 11:24:46;;;;;;;15.10;3.20;;;;;;;14.14;51.86;102755.22;5014521;28;20034;-65
2021/12/20 11:27:21;;;;;;;16.38;3.15;;;;;;;14.13;52.19;102760.44;5014727;28;20046;-65
2021/12/20 11:29:48;;;;;;;13.65;3.00;;;;;;;14.06;51.75;102736.06;5014924;28;20108;-65
2021/12/20 11:32:15;;;;;;;17.15;3.30;;;;;;;14.11;52.12;102750.00;5013584;28;20030;-65
2021/12/20 11:34:42;;;;;;;15.93;3.13;;;;;;;14.14;52.06;102756.97;4997121;28;20030;-65
2021/12/20 11:37:09;;;;;;;16.98;3.20;;;;;;;14.12;52.06;102756.09;5013317;28;20084;-65